Main page
METAR-TAF:

METAR-TAF

Airports :

Lomé–Tokoin International Airport

Lomé, Togo

latitude: 06-10N, longitude: 001-15E, elevation: 20 m

Current weather observation

The report was made 25 minutes ago, at 06:00 UTC
Calm wind
Temperature 25°C
Humidity 89%
Pressure 1012 hPa
Visibility: 8000 m
Few clouds at a height of 1000 ft

METAR: DXXX 230600Z 00000KT 8000 FEW010 25/23 Q1012 RETS NOSIG

Time: 06:25 (06:25 UTC)

Forecast

The report was made 1 hour and 25 minutes ago, at 05:00 UTC
Forecast valid from 23 at 06 UTC to 24 at 12 UTC
Wind 5 kt from variable directions
Visibility 10 km or more
Few clouds at a height of 1000 ft
Few clouds at a height of 2000 ft, Cumulonimbus.
thunderstorm
Becoming
from 23 at 08 UTC to 23 at 10 UTC
Wind 10 kt from the South/Southwest
Scattered clouds at a height of 1000 ft
Becoming
from 24 at 00 UTC to 24 at 02 UTC
Wind 5 kt from variable directions

TAF: DXXX 230500Z 2306/2412 VRB05KT 9999 TS FEW010 FEW020CB BECMG 2308/2310 20010KT NSW SCT010 BECMG 2400/2402 VRB05KT

Weather observations and forecasts of more than 4000 airports (METAR and TAF reports).

The available stations are represented by yellow and red dots on the map.

Hover mouse over dot to see the name of the station.

Then click to see weather observations and forecasts.

To change the map : click on the green buttons with a black cross to zoom in, on the green button with a dash to zoom out, or on the green arrows for adjacent maps.


METAR-TAF: